Time;durP1;ratioP1;P1;durP2;ratioP2;P2;SDS_P1;SDS_P2;PMS_P1;PMS_P2;Temp;Humidity;BMP_temperature;BMP_pressure;BME280_temperature;BME280_humidity;BME280_pressure;Samples;Min_cycle;Max_cycle;Signal;HPM_P1;HPM_P2
2022/05/29 00:00:10;;;;;;;;;;;;;;;17.89;91.13;94858.63;5114646;28;1003;-48
2022/05/29 00:02:36;;;;;;;;;;;;;;;17.38;93.31;94789.97;5114457;28;1990;-48
2022/05/29 00:05:02;;;;;;;;;;;;;;;17.16;94.95;94757.78;5117406;27;1153;-48
2022/05/29 00:07:28;;;;;;;;;;;;;;;17.29;94.32;94796.63;5135201;27;1126;-48
2022/05/29 00:09:54;;;;;;;;;;;;;;;17.43;93.42;94797.41;5135056;27;983;-48
2022/05/29 00:12:21;;;;;;;;;;;;;;;17.37;93.67;94789.09;5134809;27;1024;-48
2022/05/29 00:14:48;;;;;;;;;;;;;;;17.27;94.27;94783.31;5134672;27;1075;-48
2022/05/29 00:17:15;;;;;;;;;;;;;;;17.35;93.92;94784.97;5134866;27;1094;-48
2022/05/29 00:19:41;;;;;;;;;;;;;;;17.46;93.84;94813.22;5134552;27;1059;-48
2022/05/29 00:22:09;;;;;;;;;;;;;;;17.50;94.11;94830.66;5134911;27;1910;-48
2022/05/29 00:24:35;;;;;;;;;;;;;;;17.56;93.43;94863.06;5134587;27;965;-48
2022/05/29 00:27:02;;;;;;;;;;;;;;;17.62;92.56;94861.41;5134906;27;1182;-48
2022/05/29 00:29:28;;;;;;;;;;;;;;;17.55;93.05;94844.38;5134556;27;936;-48
2022/05/29 00:31:55;;;;;;;;;;;;;;;17.28;94.75;94808.47;5134497;27;1072;-48
2022/05/29 00:34:21;;;;;;;;;;;;;;;17.11;95.60;94779.22;5134935;27;1047;-48
2022/05/29 00:36:48;;;;;;;;;;;;;;;17.00;96.63;94757.41;5134778;27;969;-48
2022/05/29 00:39:15;;;;;;;;;;;;;;;16.97;96.57;94748.69;5134355;27;1871;-48
2022/05/29 00:41:41;;;;;;;;;;;;;;;16.98;97.78;94763.84;5134338;27;1910;-48
2022/05/29 00:44:07;;;;;;;;;;;;;;;17.12;96.98;94785.44;5133390;27;1057;-48
2022/05/29 00:46:34;;;;;;;;;;;;;;;17.24;96.48;94785.63;5134255;27;1032;-48
2022/05/29 00:49:04;;;;;;;;;;;;;;;17.35;95.58;94783.09;5134226;27;998;-48
2022/05/29 00:51:30;;;;;;;;;;;;;;;17.52;93.76;94778.03;5134611;27;964;-48
2022/05/29 00:53:56;;;;;;;;;;;;;;;17.45;93.87;94769.13;5134061;27;1063;-48
2022/05/29 00:56:23;;;;;;;;;;;;;;;17.29;94.84;94778.53;5134385;27;967;-48
2022/05/29 00:58:49;;;;;;;;;;;;;;;17.17;96.29;94770.25;5134596;27;1065;-49
2022/05/29 01:01:15;;;;;;;;;;;;;;;17.21;96.54;94767.97;5134055;27;1047;-49
2022/05/29 01:03:41;;;;;;;;;;;;;;;17.33;95.41;94758.16;5134076;27;1977;-49
2022/05/29 01:06:08;;;;;;;;;;;;;;;17.34;95.30;94757.13;5121619;27;1148;-49
2022/05/29 01:08:36;;;;;;;;;;;;;;;17.22;94.93;94741.78;5113588;28;1019;-49
2022/05/29 01:11:10;;;;;;;;;;;;;;;17.11;95.41;94752.22;5113746;28;1048;-48
2022/05/29 01:13:58;;;;;;;;;;;;;;;17.06;95.63;94738.50;5113449;28;1385;-48
2022/05/29 01:16:31;;;;;;;;;;;;;;;17.08;96.02;94738.28;5113230;28;1079;-48
2022/05/29 01:19:00;;;;;;;;;;;;;;;17.12;95.09;94737.66;5113830;28;983;-48
2022/05/29 01:21:49;;;;;;;;;;;;;;;17.01;95.14;94734.78;5113236;28;1996;-48
2022/05/29 01:24:15;;;;;;;;;;;;;;;16.94;95.17;94722.13;5114232;28;1881;-48
2022/05/29 01:27:00;;;;;;;;;;;;;;;16.89;94.52;94730.00;5117282;28;952;-48
2022/05/29 01:29:49;;;;;;;;;;;;;;;16.88;94.83;94735.63;5117459;28;1056;-48
2022/05/29 01:32:17;;;;;;;;;;;;;;;16.72;95.08;94736.88;5114434;28;1145;-48
2022/05/29 01:34:49;;;;;;;;;;;;;;;16.75;95.56;94715.69;5117251;28;1083;-48
2022/05/29 01:37:18;;;;;;;;;;;;;;;16.82;94.81;94726.50;5117323;28;1094;-48
2022/05/29 01:40:03;;;;;;;;;;;;;;;16.81;93.41;94729.34;5117432;28;986;-48
2022/05/29 01:42:32;;;;;;;;;;;;;;;16.53;92.23;94717.78;5117120;28;1986;-48
2022/05/29 01:45:11;;;;;;;;;;;;;;;16.48;93.13;94712.16;5117042;28;1035;-48
2022/05/29 01:47:41;;;;;;;;;;;;;;;16.49;93.14;94710.31;5117353;28;984;-48
2022/05/29 01:50:11;;;;;;;;;;;;;;;16.38;93.34;94711.75;5117298;28;1000;-48
2022/05/29 01:52:47;;;;;;;;;;;;;;;16.27;93.67;94706.97;5117115;28;983;-48
2022/05/29 01:55:19;;;;;;;;;;;;;;;16.19;93.07;94706.16;5116908;28;968;-48
2022/05/29 01:57:47;;;;;;;;;;;;;;;16.20;94.27;94691.63;5116996;28;1871;-48
2022/05/29 02:00:18;;;;;;;;;;;;;;;16.32;93.99;94688.31;5116631;28;1034;-48
2022/05/29 02:02:48;;;;;;;;;;;;;;;16.33;93.55;94685.41;5116816;28;1991;-48
2022/05/29 02:05:16;;;;;;;;;;;;;;;16.26;92.37;94681.88;5121503;27;1160;-48
2022/05/29 02:07:50;;;;;;;;;;;;;;;16.13;92.17;94679.19;5137656;27;1056;-48
2022/05/29 02:10:28;;;;;;;;;;;;;;;16.05;93.35;94672.13;5137356;27;1028;-48
2022/05/29 02:12:58;;;;;;;;;;;;;;;16.07;93.23;94663.81;5137529;27;1039;-48
2022/05/29 02:15:28;;;;;;;;;;;;;;;16.07;93.78;94651.19;5136855;27;1091;-48
2022/05/29 02:17:57;;;;;;;;;;;;;;;16.15;93.92;94655.53;5137456;27;964;-48
2022/05/29 02:20:25;;;;;;;;;;;;;;;16.22;93.85;94650.13;5137231;27;1047;-48
2022/05/29 02:22:54;;;;;;;;;;;;;;;16.19;93.43;94640.59;5136967;27;2001;-48
2022/05/29 02:25:22;;;;;;;;;;;;;;;16.12;93.83;94645.16;5137093;27;1047;-48
2022/05/29 02:27:50;;;;;;;;;;;;;;;16.15;93.70;94650.16;5137150;27;945;-48
2022/05/29 02:30:16;;;;;;;;;;;;;;;16.13;93.38;94652.22;5137105;27;961;-48
2022/05/29 02:32:52;;;;;;;;;;;;;;;16.05;92.29;94649.72;5136701;27;1024;-48
2022/05/29 02:35:18;;;;;;;;;;;;;;;16.05;93.23;94645.16;5136884;27;1083;-48
2022/05/29 02:37:53;;;;;;;;;;;;;;;16.14;93.20;94640.38;5137079;27;1023;-48
2022/05/29 02:40:38;;;;;;;;;;;;;;;16.26;92.22;94641.44;5137427;27;1035;-48
2022/05/29 02:43:04;;;;;;;;;;;;;;;16.16;92.70;94631.06;5135467;27;1971;-48
2022/05/29 02:45:43;;;;;;;;;;;;;;;16.17;92.41;94630.00;5136618;27;973;-48
2022/05/29 02:48:12;;;;;;;;;;;;;;;16.15;92.91;94626.69;5136493;27;1007;-48
2022/05/29 02:51:11;;;;;;;;;;;;;;;16.21;93.79;94616.94;5136815;27;1046;-48
2022/05/29 02:53:41;;;;;;;;;;;;;;;16.28;93.39;94617.78;5091041;27;1171;-48
2022/05/29 02:56:07;;;;;;;;;;;;;;;16.31;93.12;94616.50;5136481;27;1087;-48
2022/05/29 02:58:34;;;;;;;;;;;;;;;16.37;92.60;94616.50;5136416;27;1031;-49
2022/05/29 03:01:06;;;;;;;;;;;;;;;16.36;92.66;94622.13;5136573;27;973;-48
2022/05/29 03:03:46;;;;;;;;;;;;;;;16.24;92.70;94618.38;5136434;27;1906;-48
2022/05/29 03:06:21;;;;;;;;;;;;;;;16.08;93.11;94622.34;5123372;27;1200;-48
2022/05/29 03:08:50;;;;;;;;;;;;;;;16.04;94.68;94618.41;5115691;28;1019;-48
2022/05/29 03:11:39;;;;;;;;;;;;;;;16.09;94.20;94618.63;5115419;28;1080;-48
2022/05/29 03:14:08;;;;;;;;;;;;;;;16.08;94.12;94615.06;5112228;28;1866;-48
2022/05/29 03:16:42;;;;;;;;;;;;;;;16.14;93.86;94616.97;5115518;28;968;-48
2022/05/29 03:19:08;;;;;;;;;;;;;;;16.26;93.69;94624.38;5115504;28;1012;-48
2022/05/29 03:21:50;;;;;;;;;;;;;;;16.30;93.46;94620.25;5115044;28;1913;-48
2022/05/29 03:24:28;;;;;;;;;;;;;;;16.34;93.20;94626.91;5115341;28;979;-48
2022/05/29 03:27:00;;;;;;;;;;;;;;;16.25;92.93;94620.06;5115282;28;1047;-48
2022/05/29 03:29:37;;;;;;;;;;;;;;;16.26;93.28;94621.69;5115188;28;973;-49
2022/05/29 03:32:04;;;;;;;;;;;;;;;16.34;92.91;94622.31;5115277;28;1039;-48
2022/05/29 03:34:30;;;;;;;;;;;;;;;16.36;92.50;94622.94;5115354;28;968;-48
2022/05/29 03:36:56;;;;;;;;;;;;;;;16.31;93.25;94620.03;5114969;27;1179;-48
2022/05/29 03:39:22;;;;;;;;;;;;;;;16.33;92.76;94625.22;5115295;28;1024;-48
2022/05/29 03:41:50;;;;;;;;;;;;;;;16.27;93.60;94616.09;5114763;28;1988;-48
2022/05/29 03:44:17;;;;;;;;;;;;;;;16.26;93.85;94617.16;5114979;28;960;-48
2022/05/29 03:46:44;;;;;;;;;;;;;;;16.31;93.73;94628.13;5114210;28;991;-48
2022/05/29 03:49:11;;;;;;;;;;;;;;;16.36;93.35;94619.41;5115080;28;950;-48
2022/05/29 03:51:37;;;;;;;;;;;;;;;16.33;93.98;94617.13;5113759;28;973;-49
2022/05/29 03:54:04;;;;;;;;;;;;;;;16.23;94.05;94622.13;5113359;28;1044;-48
2022/05/29 03:56:30;;;;;;;;;;;;;;;16.08;94.36;94616.94;5114915;28;1063;-48
2022/05/29 03:58:56;;;;;;;;;;;;;;;16.12;93.37;94619.00;5114443;28;1026;-48
2022/05/29 04:01:23;;;;;;;;;;;;;;;16.30;93.87;94617.56;5114578;28;1003;-48
2022/05/29 04:03:49;;;;;;;;;;;;;;;16.46;93.33;94618.97;5114289;28;2013;-48
2022/05/29 04:06:15;;;;;;;;;;;;;;;16.40;94.38;94620.66;5128186;27;1152;-48
2022/05/29 04:14:11;;;;;;;;;;;;;;;16.37;94.16;94612.97;5134520;27;1091;-48
2022/05/29 04:16:37;;;;;;;;;;;;;;;16.51;93.99;94614.63;5135042;27;1064;-48
2022/05/29 04:19:03;;;;;;;;;;;;;;;16.55;93.84;94626.63;5134957;27;1039;-48
2022/05/29 04:21:29;;;;;;;;;;;;;;;16.53;94.20;94622.50;5135007;27;1914;-48
2022/05/29 04:23:55;;;;;;;;;;;;;;;16.51;94.43;94617.31;5134713;27;969;-48
2022/05/29 04:26:21;;;;;;;;;;;;;;;16.66;93.70;94622.47;5134665;27;1001;-48
2022/05/29 04:28:47;;;;;;;;;;;;;;;16.78;93.43;94620.75;5134775;27;964;-48
2022/05/29 04:31:13;;;;;;;;;;;;;;;16.72;94.45;94621.63;5134907;27;999;-49
2022/05/29 04:33:39;;;;;;;;;;;;;;;16.79;93.73;94627.81;5134516;27;1078;-49
2022/05/29 04:36:05;;;;;;;;;;;;;;;16.94;93.99;94624.91;5134932;27;1023;-48
2022/05/29 04:38:31;;;;;;;;;;;;;;;17.04;93.37;94610.94;5134576;27;976;-48
2022/05/29 04:40:57;;;;;;;;;;;;;;;17.20;93.04;94611.50;5134758;27;972;-48
2022/05/29 04:43:24;;;;;;;;;;;;;;;17.34;92.75;94616.63;5134010;27;1989;-48
2022/05/29 04:45:54;;;;;;;;;;;;;;;17.40;93.13;94603.31;5134833;27;1051;-49
2022/05/29 04:48:20;;;;;;;;;;;;;;;17.49;94.06;94607.38;5134464;27;1047;-48
2022/05/29 04:50:46;;;;;;;;;;;;;;;17.56;93.11;94608.19;5134919;27;1032;-48
2022/05/29 04:53:12;;;;;;;;;;;;;;;17.71;90.48;94611.41;5134294;27;924;-48
2022/05/29 04:55:39;;;;;;;;;;;;;;;17.88;90.33;94606.31;5134135;27;1050;-48
2022/05/29 04:58:06;;;;;;;;;;;;;;;17.93;90.11;94605.69;5134094;27;1044;-48
2022/05/29 05:00:32;;;;;;;;;;;;;;;17.72;91.88;94612.25;5133718;27;1056;-49
2022/05/29 05:02:59;;;;;;;;;;;;;;;17.64;92.22;94604.38;5134096;27;1905;-48
2022/05/29 05:05:25;;;;;;;;;;;;;;;17.76;93.00;94594.53;5128045;28;1160;-48
2022/05/29 05:07:51;;;;;;;;;;;;;;;17.92;92.31;94599.41;5113624;28;1012;-48
2022/05/29 05:10:17;;;;;;;;;;;;;;;18.05;92.84;94603.06;5113408;28;1039;-48
2022/05/29 05:12:44;;;;;;;;;;;;;;;18.13;91.51;94598.19;5113673;28;991;-48
2022/05/29 05:15:11;;;;;;;;;;;;;;;18.07;92.40;94606.38;5113224;28;1090;-48
2022/05/29 05:17:37;;;;;;;;;;;;;;;18.07;91.65;94603.69;5113938;28;1117;-48
2022/05/29 05:20:04;;;;;;;;;;;;;;;18.14;92.65;94599.06;5113545;28;1114;-48
2022/05/29 05:22:30;;;;;;;;;;;;;;;18.31;89.88;94604.72;5113396;28;1989;-48
2022/05/29 05:24:56;;;;;;;;;;;;;;;18.58;88.57;94609.88;5113094;28;976;-48
2022/05/29 05:27:22;;;;;;;;;;;;;;;18.85;87.67;94600.44;5113531;28;961;-48
2022/05/29 05:29:48;;;;;;;;;;;;;;;18.90;88.38;94603.28;5113938;28;1011;-48
2022/05/29 05:32:14;;;;;;;;;;;;;;;18.79;86.61;94606.72;5113574;28;1079;-48
2022/05/29 05:34:41;;;;;;;;;;;;;;;18.75;86.45;94596.59;5113508;28;995;-48
2022/05/29 05:37:08;;;;;;;;;;;;;;;18.82;85.11;94600.91;5113496;28;977;-48
2022/05/29 05:39:34;;;;;;;;;;;;;;;18.94;86.46;94603.69;5113325;28;965;-48
2022/05/29 05:42:00;;;;;;;;;;;;;;;18.85;87.93;94602.31;5113459;28;1994;-48
2022/05/29 05:44:27;;;;;;;;;;;;;;;18.74;88.42;94601.16;5113277;28;963;-48
2022/05/29 05:46:53;;;;;;;;;;;;;;;18.77;88.11;94589.88;5113333;28;1175;-48
2022/05/29 05:49:20;;;;;;;;;;;;;;;19.13;87.71;94582.81;5113523;28;1044;-48
2022/05/29 05:51:46;;;;;;;;;;;;;;;19.60;84.56;94587.59;5113121;28;1080;-48
2022/05/29 05:54:13;;;;;;;;;;;;;;;19.75;85.65;94581.75;5112821;28;1044;-48
2022/05/29 05:56:47;;;;;;;;;;;;;;;19.42;85.82;94583.88;5113289;28;1032;-48
2022/05/29 05:59:14;;;;;;;;;;;;;;;19.24;87.67;94576.63;5113085;28;1015;-48
2022/05/29 06:01:40;;;;;;;;;;;;;;;19.47;85.70;94578.59;5113302;28;1914;-48
2022/05/29 06:04:06;;;;;;;;;;;;;;;19.74;87.24;94575.53;5113351;28;968;-48
2022/05/29 06:06:33;;;;;;;;;;;;;;;20.14;84.08;94579.47;5128946;28;1200;-48
2022/05/29 06:08:59;;;;;;;;;;;;;;;20.47;82.64;94573.50;5133713;27;964;-48
2022/05/29 06:11:27;;;;;;;;;;;;;;;20.71;75.07;94574.31;5134840;27;1062;-48
2022/05/29 06:13:53;;;;;;;;;;;;;;;20.64;78.38;94574.44;5137335;27;1103;-49
2022/05/29 06:16:20;;;;;;;;;;;;;;;20.60;76.94;94565.13;5137090;27;976;-49
2022/05/29 06:18:46;;;;;;;;;;;;;;;20.77;75.48;94564.38;5137452;27;995;-49
2022/05/29 06:21:12;;;;;;;;;;;;;;;20.74;75.25;94570.31;5137008;27;1039;-49
2022/05/29 06:23:38;;;;;;;;;;;;;;;21.05;77.00;94564.41;5136661;27;1906;-49
2022/05/29 06:26:05;;;;;;;;;;;;;;;21.42;77.82;94565.97;5137185;27;983;-49
2022/05/29 06:28:32;;;;;;;;;;;;;;;21.64;77.69;94569.69;5137035;27;1007;-49
2022/05/29 06:30:58;;;;;;;;;;;;;;;21.86;76.28;94560.81;5136827;27;1075;-51
2022/05/29 06:33:26;;;;;;;;;;;;;;;21.94;74.91;94563.13;5135914;27;979;-48
2022/05/29 06:35:52;;;;;;;;;;;;;;;21.86;74.55;94558.09;5136789;27;1043;-48
2022/05/29 06:38:19;;;;;;;;;;;;;;;21.82;73.75;94549.59;5136778;27;1056;-48
2022/05/29 06:40:49;;;;;;;;;;;;;;;22.05;72.72;94566.84;5136528;27;1012;-49
2022/05/29 06:43:15;;;;;;;;;;;;;;;21.95;73.39;94556.63;5136804;27;1981;-48
2022/05/29 06:45:41;;;;;;;;;;;;;;;21.91;74.87;94555.47;5136508;27;1033;-48
2022/05/29 06:48:08;;;;;;;;;;;;;;;22.10;72.94;94550.59;5136633;27;1044;-48
2022/05/29 06:50:34;;;;;;;;;;;;;;;22.12;73.89;94555.78;5136343;27;964;-48
2022/05/29 06:53:00;;;;;;;;;;;;;;;22.10;73.92;94552.47;5136606;27;956;-48
2022/05/29 06:55:26;;;;;;;;;;;;;;;22.25;73.98;94544.56;5136448;27;968;-48
2022/05/29 06:57:52;;;;;;;;;;;;;;;22.44;72.34;94544.31;5136351;27;1024;-48
2022/05/29 07:08:39;;;;;;;;;;;;;;;22.52;73.71;94532.97;5115785;28;1007;-48
2022/05/29 07:11:07;;;;;;;;;;;;;;;22.61;71.12;94542.38;5115469;28;977;-48
2022/05/29 07:13:34;;;;;;;;;;;;;;;22.81;71.65;94534.50;5115389;28;1272;-48
2022/05/29 07:16:01;;;;;;;;;;;;;;;22.98;71.03;94541.78;5116033;28;1007;-48
2022/05/29 07:18:27;;;;;;;;;;;;;;;23.07;73.86;94540.31;5115747;28;980;-48
2022/05/29 07:20:53;;;;;;;;;;;;;;;22.98;69.02;94533.63;5115317;28;1012;-48
2022/05/29 07:23:19;;;;;;;;;;;;;;;23.05;71.59;94530.72;5114672;28;1918;-49
2022/05/29 07:25:45;;;;;;;;;;;;;;;22.90;68.69;94534.88;5114864;28;1032;-49
2022/05/29 07:28:11;;;;;;;;;;;;;;;22.97;72.60;94535.53;5115550;28;949;-49
2022/05/29 07:30:37;;;;;;;;;;;;;;;23.12;71.11;94525.91;5115142;28;1860;-49
2022/05/29 07:33:04;;;;;;;;;;;;;;;23.27;71.33;94533.44;5115376;28;972;-49
2022/05/29 07:35:30;;;;;;;;;;;;;;;23.53;67.82;94529.91;5115343;28;1038;-49
2022/05/29 07:37:56;;;;;;;;;;;;;;;23.73;68.89;94525.72;5115131;28;964;-49
2022/05/29 07:40:23;;;;;;;;;;;;;;;23.78;68.66;94523.03;5115018;28;1055;-49
2022/05/29 07:45:33;;;;;;;;;;;;;;;23.54;66.27;94512.47;5115015;28;965;-49
2022/05/29 07:48:00;;;;;;;;;;;;;;;23.61;66.29;94512.25;5115331;28;1147;-49
2022/05/29 07:50:26;;;;;;;;;;;;;;;23.57;67.17;94514.66;5115023;28;995;-49
2022/05/29 07:52:54;;;;;;;;;;;;;;;23.54;66.22;94508.88;5114704;28;1082;-49
2022/05/29 07:55:20;;;;;;;;;;;;;;;23.37;64.20;94511.72;5114509;28;1959;-49
2022/05/29 07:57:47;;;;;;;;;;;;;;;23.80;67.28;94510.00;5114440;28;995;-49
2022/05/29 08:00:15;;;;;;;;;;;;;;;24.24;65.17;94501.59;5115021;27;1041;-49
2022/05/29 08:02:41;;;;;;;;;;;;;;;24.52;63.94;94505.91;5114447;28;1910;-49
2022/05/29 08:05:09;;;;;;;;;;;;;;;24.53;66.72;94510.28;5118766;27;1165;-49
2022/05/29 08:07:35;;;;;;;;;;;;;;;24.82;65.34;94509.91;5135126;27;995;-49
2022/05/29 08:10:01;;;;;;;;;;;;;;;24.87;61.10;94506.34;5135305;27;992;-49
2022/05/29 08:12:27;;;;;;;;;;;;;;;24.79;65.28;94504.94;5134603;27;1067;-49
2022/05/29 08:14:53;;;;;;;;;;;;;;;25.04;64.20;94496.06;5134712;27;1229;-49
2022/05/29 08:17:20;;;;;;;;;;;;;;;24.93;61.68;94500.66;5134722;27;1885;-49
2022/05/29 08:19:46;;;;;;;;;;;;;;;24.32;62.76;94484.72;5134773;27;1036;-49
2022/05/29 08:22:12;;;;;;;;;;;;;;;24.18;63.23;94483.53;5134891;27;1964;-48
2022/05/29 08:32:58;;;;;;;;;;;;;;;24.50;60.70;94475.25;5134570;27;1091;-50
2022/05/29 08:35:24;;;;;;;;;;;;;;;24.82;60.13;94473.56;5134485;27;961;-50
2022/05/29 08:37:50;;;;;;;;;;;;;;;24.82;55.87;94465.34;5134597;27;912;-48
2022/05/29 08:40:16;;;;;;;;;;;;;;;24.99;59.28;94465.94;5134799;27;1086;-49
2022/05/29 08:42:42;;;;;;;;;;;;;;;24.96;58.54;94461.00;5134555;27;1987;-49
2022/05/29 08:45:09;;;;;;;;;;;;;;;25.29;62.36;94454.31;5134542;27;961;-52
2022/05/29 08:47:36;;;;;;;;;;;;;;;25.37;61.52;94449.41;5134495;27;961;-49
2022/05/29 08:50:02;;;;;;;;;;;;;;;25.55;59.77;94442.56;5134870;27;953;-48
2022/05/29 08:52:51;;;;;;;;;;;;;;;25.60;57.84;94437.13;5134163;27;972;-48
2022/05/29 08:55:29;;;;;;;;;;;;;;;25.77;56.12;94443.13;5134283;27;1001;-49
2022/05/29 08:58:01;;;;;;;;;;;;;;;25.53;56.97;94440.09;5134287;27;1032;-49
2022/05/29 09:00:46;;;;;;;;;;;;;;;25.76;57.91;94435.19;5134705;27;1048;-50
2022/05/29 09:03:16;;;;;;;;;;;;;;;25.66;57.13;94431.34;5134354;27;1984;-49
2022/05/29 09:05:47;;;;;;;;;;;;;;;25.67;56.77;94429.47;5125547;27;1204;-49
2022/05/29 09:08:24;;;;;;;;;;;;;;;25.82;56.35;94428.63;5113867;28;1179;-49
2022/05/29 09:10:53;;;;;;;;;;;;;;;25.68;57.20;94425.63;5113528;28;968;-48
2022/05/29 09:13:42;;;;;;;;;;;;;;;25.64;58.62;94411.66;5113269;28;1083;-49
2022/05/29 09:16:12;;;;;;;;;;;;;;;25.75;59.59;94412.47;5110524;28;2133;-49
2022/05/29 09:18:40;;;;;;;;;;;;;;;25.58;61.14;94407.28;5113307;28;1095;-48
2022/05/29 09:21:26;;;;;;;;;;;;;;;25.66;60.70;94409.47;5113551;28;1058;-49
2022/05/29 09:23:58;;;;;;;;;;;;;;;25.83;56.85;94411.91;5113050;28;1973;-49
2022/05/29 09:26:27;;;;;;;;;;;;;;;25.94;57.92;94403.75;5113370;28;1074;-48
2022/05/29 09:28:55;;;;;;;;;;;;;;;26.14;59.43;94397.41;5113692;28;1008;-48
2022/05/29 09:31:25;;;;;;;;;;;;;;;26.22;57.03;94392.19;5113538;28;1067;-48
2022/05/29 09:33:51;;;;;;;;;;;;;;;26.20;56.56;94385.31;5113501;28;1032;-48
2022/05/29 09:36:27;;;;;;;;;;;;;;;26.32;59.72;94379.56;5113657;28;949;-48
2022/05/29 09:39:01;;;;;;;;;;;;;;;26.37;57.94;94376.78;5113252;28;1114;-48
2022/05/29 09:41:33;;;;;;;;;;;;;;;26.32;60.37;94357.63;5113546;28;1059;-48
2022/05/29 09:44:05;;;;;;;;;;;;;;;26.43;60.15;94359.25;5113170;28;1913;-48
2022/05/29 09:46:32;;;;;;;;;;;;;;;26.57;59.20;94354.78;5116044;28;1087;-48
2022/05/29 09:51:47;;;;;;;;;;;;;;;26.75;58.58;94344.31;5117459;28;991;-48
2022/05/29 09:54:29;;;;;;;;;;;;;;;26.91;60.42;94340.38;5116743;28;1024;-48
2022/05/29 09:57:05;;;;;;;;;;;;;;;27.02;59.01;94332.94;5117353;28;1017;-49
2022/05/29 09:59:34;;;;;;;;;;;;;;;27.23;58.77;94331.66;5116823;28;1968;-50
2022/05/29 10:02:02;;;;;;;;;;;;;;;27.35;54.75;94325.03;5116925;28;1994;-49
2022/05/29 10:04:28;;;;;;;;;;;;;;;27.42;57.42;94323.59;5116727;28;1032;-48
2022/05/29 10:06:57;;;;;;;;;;;;;;;27.55;54.51;94319.38;5135757;27;1172;-48
2022/05/29 10:09:25;;;;;;;;;;;;;;;27.60;52.33;94316.59;5136081;27;952;-49
2022/05/29 10:11:53;;;;;;;;;;;;;;;27.60;53.80;94307.50;5137672;27;1063;-54
2022/05/29 10:14:19;;;;;;;;;;;;;;;27.69;53.41;94294.00;5137228;27;1340;-50
2022/05/29 10:16:47;;;;;;;;;;;;;;;27.61;51.11;94298.19;5137139;27;1060;-50
2022/05/29 10:19:29;;;;;;;;;;;;;;;27.46;49.32;94291.72;5137025;27;1040;-49
2022/05/29 10:21:56;;;;;;;;;;;;;;;27.38;51.86;94294.28;5137122;27;1981;-50
2022/05/29 10:24:22;;;;;;;;;;;;;;;27.42;47.55;94296.16;5136633;27;1024;-50
2022/05/29 10:26:56;;;;;;;;;;;;;;;27.31;46.34;94300.09;5137051;27;1020;-49
2022/05/29 10:29:29;;;;;;;;;;;;;;;27.15;48.32;94284.81;5137169;27;1035;-50
2022/05/29 10:31:56;;;;;;;;;;;;;;;26.82;47.72;94287.25;5137386;27;979;-49
2022/05/29 10:34:28;;;;;;;;;;;;;;;26.80;48.02;94279.28;5136955;27;937;-49
2022/05/29 10:36:55;;;;;;;;;;;;;;;26.91;46.26;94271.00;5137241;27;1106;-50
2022/05/29 10:39:23;;;;;;;;;;;;;;;26.75;46.79;94275.75;5136910;27;1035;-50
2022/05/29 10:41:50;;;;;;;;;;;;;;;26.79;48.59;94274.94;5137012;27;1909;-49
2022/05/29 10:44:34;;;;;;;;;;;;;;;27.03;51.13;94274.19;5136929;27;1061;-50
2022/05/29 10:47:06;;;;;;;;;;;;;;;27.36;49.01;94275.34;5136925;27;1016;-50
2022/05/29 10:49:37;;;;;;;;;;;;;;;27.45;46.06;94259.91;5136638;27;1011;-50
2022/05/29 10:52:12;;;;;;;;;;;;;;;27.55;47.51;94256.22;5136696;27;1027;-50
2022/05/29 10:54:57;;;;;;;;;;;;;;;27.48;47.22;94238.47;5136387;27;956;-50
2022/05/29 10:57:26;;;;;;;;;;;;;;;27.44;46.37;94232.72;5136294;27;1083;-50
2022/05/29 11:00:25;;;;;;;;;;;;;;;27.44;46.64;94233.53;5136592;27;969;-50
2022/05/29 11:03:19;;;;;;;;;;;;;;;27.41;46.60;94214.94;5091292;27;1993;-50
2022/05/29 11:06:01;;;;;;;;;;;;;;;27.54;48.33;94212.59;5127354;27;1160;-49
2022/05/29 11:08:37;;;;;;;;;;;;;;;27.58;46.91;94197.97;5115659;28;1056;-50
2022/05/29 11:11:06;;;;;;;;;;;;;;;27.60;47.06;94186.72;5115805;28;1104;-50
2022/05/29 11:14:01;;;;;;;;;;;;;;;27.62;44.41;94185.34;5115414;28;1055;-49
2022/05/29 11:16:34;;;;;;;;;;;;;;;27.63;44.71;94178.72;5110556;28;1683;-49
2022/05/29 11:19:18;;;;;;;;;;;;;;;27.70;44.43;94183.03;5115716;28;1020;-49
2022/05/29 11:21:53;;;;;;;;;;;;;;;27.62;43.08;94174.34;5115481;28;1992;-50
2022/05/29 11:24:31;;;;;;;;;;;;;;;27.52;45.26;94171.72;5115305;28;1036;-50
2022/05/29 11:27:06;;;;;;;;;;;;;;;27.65;44.68;94161.97;5115612;28;1062;-50
2022/05/29 11:29:33;;;;;;;;;;;;;;;27.64;44.10;94163.91;5115393;28;991;-50
2022/05/29 11:31:59;;;;;;;;;;;;;;;27.65;43.74;94156.47;5115654;28;1119;-50
2022/05/29 11:34:28;;;;;;;;;;;;;;;27.73;43.53;94153.06;5114935;28;1056;-50
2022/05/29 11:36:54;;;;;;;;;;;;;;;27.66;46.39;94155.38;5115206;28;1071;-49
2022/05/29 11:39:23;;;;;;;;;;;;;;;27.72;42.78;94148.69;5114834;28;1043;-60
2022/05/29 11:41:51;;;;;;;;;;;;;;;27.41;43.71;94153.72;5115298;28;1988;-48
2022/05/29 11:44:20;;;;;;;;;;;;;;;27.17;43.94;94140.78;5115059;28;956;-49
2022/05/29 11:52:39;;;;;;;;;;;;;;;26.44;47.82;94138.91;5114933;28;1027;-48
2022/05/29 11:55:25;;;;;;;;;;;;;;;26.52;45.27;94138.28;5114907;28;925;-50
2022/05/29 11:58:03;;;;;;;;;;;;;;;26.48;46.77;94127.09;5114783;28;1058;-49
2022/05/29 12:00:33;;;;;;;;;;;;;;;26.42;48.01;94122.72;5114693;28;1060;-49
2022/05/29 12:03:09;;;;;;;;;;;;;;;26.43;46.43;94129.06;5114810;28;1913;-49
2022/05/29 12:05:41;;;;;;;;;;;;;;;26.43;44.88;94127.13;5122107;27;1149;-49
2022/05/29 12:08:19;;;;;;;;;;;;;;;26.40;46.54;94124.94;5134833;27;1000;-49
2022/05/29 12:10:45;;;;;;;;;;;;;;;26.30;45.03;94108.59;5135024;27;956;-49
2022/05/29 12:16:37;;;;;;;;;;;;;;;26.46;45.13;94088.19;2934464;28;2230;-55
2022/05/29 12:19:08;;;;;;;;;;;;;;;26.34;45.86;94081.44;5094002;28;1012;-49
2022/05/29 12:21:44;;;;;;;;;;;;;;;26.36;44.53;94081.97;5094122;28;1031;-49
2022/05/29 12:24:14;;;;;;;;;;;;;;;26.23;46.04;94073.28;5093636;28;1119;-49
2022/05/29 12:26:47;;;;;;;;;;;;;;;26.13;48.35;94076.13;5092373;28;1041;-49
2022/05/29 12:29:20;;;;;;;;;;;;;;;26.06;46.32;94070.94;5093890;28;1107;-48
2022/05/29 12:32:01;;;;;;;;;;;;;;;26.00;46.43;94065.78;5093536;28;1052;-49
2022/05/29 12:34:30;;;;;;;;;;;;;;;25.98;47.73;94063.34;5093747;28;1092;-49
2022/05/29 12:36:59;;;;;;;;;;;;;;;26.02;49.28;94064.41;5093889;28;1041;-48
2022/05/29 12:39:40;;;;;;;;;;;;;;;26.18;46.08;94059.66;5093813;28;1032;-48
2022/05/29 12:42:06;;;;;;;;;;;;;;;26.38;44.52;94053.16;5093302;28;1906;-48
2022/05/29 12:44:48;;;;;;;;;;;;;;;26.49;43.99;94051.16;5093763;28;973;-48
2022/05/29 12:47:32;;;;;;;;;;;;;;;26.46;42.63;94054.47;5093763;28;984;-48
2022/05/29 12:50:25;;;;;;;;;;;;;;;26.51;42.52;94051.69;5093871;28;985;-49
2022/05/29 12:53:03;;;;;;;;;;;;;;;26.55;43.23;94040.97;5092321;28;1747;-48
2022/05/29 12:55:44;;;;;;;;;;;;;;;26.54;42.96;94042.06;5093047;28;1036;-48
2022/05/29 12:58:40;;;;;;;;;;;;;;;26.49;40.50;94038.28;5093486;28;1071;-48
2022/05/29 13:01:06;;;;;;;;;;;;;;;26.43;40.59;94044.09;5088342;28;1163;-49
2022/05/29 13:03:35;;;;;;;;;;;;;;;26.41;40.70;94046.31;5093573;28;1905;-48
2022/05/29 13:06:19;;;;;;;;;;;;;;;26.38;40.58;94046.88;5082401;28;1161;-49
2022/05/29 13:09:02;;;;;;;;;;;;;;;26.35;40.99;94053.75;5073014;28;1075;-48
2022/05/29 13:11:31;;;;;;;;;;;;;;;26.37;40.43;94047.97;5073139;28;975;-48
2022/05/29 13:14:00;;;;;;;;;;;;;;;26.35;39.30;94042.81;5073336;28;964;-49
2022/05/29 13:16:28;;;;;;;;;;;;;;;26.42;40.08;94047.94;5073110;28;936;-48
2022/05/29 13:19:17;;;;;;;;;;;;;;;26.46;38.93;94049.00;5111717;28;1087;-57
2022/05/29 13:21:59;;;;;;;;;;;;;;;26.56;39.13;94048.91;5116894;28;998;-48
2022/05/29 13:24:45;;;;;;;;;;;;;;;26.67;39.41;94046.91;5117502;28;1023;-48
2022/05/29 13:27:17;;;;;;;;;;;;;;;26.73;40.40;94047.69;5117465;28;1458;-48
2022/05/29 13:29:45;;;;;;;;;;;;;;;26.78;38.93;94031.19;5117641;28;1075;-50
2022/05/29 13:32:15;;;;;;;;;;;;;;;26.81;38.74;94036.91;5117473;28;1956;-48
2022/05/29 13:34:48;;;;;;;;;;;;;;;26.78;39.19;94032.00;5117700;28;988;-48
2022/05/29 13:37:32;;;;;;;;;;;;;;;26.75;40.16;94035.34;5117307;28;1024;-49
2022/05/29 13:40:00;;;;;;;;;;;;;;;26.67;39.63;94028.56;5117741;28;1012;-48
2022/05/29 13:42:28;;;;;;;;;;;;;;;26.54;39.21;94018.25;5117052;27;1995;-49
2022/05/29 13:44:54;;;;;;;;;;;;;;;26.36;39.82;94032.66;5117356;28;1091;-49
2022/05/29 13:47:20;;;;;;;;;;;;;;;26.27;40.40;94040.66;5117215;28;1080;-49
2022/05/29 13:50:10;;;;;;;;;;;;;;;26.17;40.15;94035.28;5116062;28;2461;-48
2022/05/29 13:52:39;;;;;;;;;;;;;;;26.05;40.84;94043.88;5113719;28;1791;-49